createdAt,value
2022-08-10T00:00:38.686Z,33.07
2022-08-10T00:03:07.784Z,33.10
2022-08-10T00:05:42.993Z,33.20
2022-08-10T00:08:11.560Z,32.99
2022-08-10T00:10:55.358Z,33.30
2022-08-10T00:13:25.359Z,33.63
2022-08-10T00:15:55.181Z,33.40
2022-08-10T00:18:31.586Z,33.58
2022-08-10T00:21:04.891Z,33.94
2022-08-10T00:23:33.422Z,34.07
2022-08-10T00:26:00.827Z,34.30
2022-08-10T00:28:28.198Z,33.80
2022-08-10T00:30:56.118Z,33.92
2022-08-10T00:33:23.550Z,34.14
2022-08-10T00:35:51.085Z,34.33
2022-08-10T00:38:18.742Z,34.09
2022-08-10T00:40:46.217Z,33.82
2022-08-10T00:43:13.645Z,34.39
2022-08-10T00:45:41.268Z,34.42
2022-08-10T00:48:10.040Z,34.23
2022-08-10T00:50:37.881Z,34.04
2022-08-10T00:53:05.521Z,34.07
2022-08-10T00:55:32.956Z,34.52
2022-08-10T00:58:20.962Z,34.43
2022-08-10T01:00:48.426Z,34.33
2022-08-10T01:03:15.791Z,34.47
2022-08-10T01:05:53.740Z,34.94
2022-08-10T01:08:30.770Z,34.96
2022-08-10T01:12:39.169Z,35.32
2022-08-10T01:14:11.019Z,35.40
2022-08-10T01:16:50.804Z,35.56
2022-08-10T01:19:49.197Z,35.02
2022-08-10T01:22:25.776Z,35.43
2022-08-10T01:25:04.476Z,35.25
2022-08-10T01:27:51.660Z,35.55
2022-08-10T01:30:20.749Z,35.75
2022-08-10T01:32:56.109Z,35.79
2022-08-10T01:35:34.452Z,35.96
2022-08-10T01:38:20.295Z,36.09
2022-08-10T01:40:55.143Z,35.98
2022-08-10T01:43:25.277Z,36.16
2022-08-10T01:45:55.996Z,36.42
2022-08-10T01:48:31.492Z,36.24
2022-08-10T01:51:27.863Z,36.33
2022-08-10T01:53:58.145Z,36.48
2022-08-10T01:56:26.577Z,36.84
2022-08-10T01:58:58.415Z,36.89
2022-08-10T02:01:27.004Z,36.63
2022-08-10T02:04:03.591Z,36.79
2022-08-10T02:06:42.499Z,36.74
2022-08-10T02:09:13.633Z,36.40
2022-08-10T02:12:06.254Z,36.38
2022-08-10T02:14:34.679Z,36.63
2022-08-10T02:17:58.524Z,36.40
2022-08-10T02:20:02.686Z,36.70
2022-08-10T02:22:45.890Z,36.78
2022-08-10T02:25:40.033Z,36.59
2022-08-10T02:28:03.417Z,36.78
2022-08-10T02:30:31.171Z,36.81
2022-08-10T02:32:59.072Z,37.14
2022-08-10T02:35:29.135Z,37.32
2022-08-10T02:38:08.886Z,37.43
2022-08-10T02:45:11.082Z,37.31
2022-08-10T02:45:27.117Z,37.18
2022-08-10T02:46:49.007Z,37.67
2022-08-10T02:49:22.448Z,37.74
2022-08-10T02:52:08.078Z,38.00
2022-08-10T02:54:39.193Z,37.88
2022-08-10T02:57:10.554Z,37.66
2022-08-10T02:59:43.231Z,38.00
2022-08-10T03:02:16.725Z,37.65
2022-08-10T03:04:54.580Z,37.83
2022-08-10T03:07:42.419Z,37.97
2022-08-10T03:10:17.014Z,38.15
2022-08-10T03:12:46.074Z,38.16
2022-08-10T03:15:15.577Z,38.26
2022-08-10T03:17:57.652Z,38.31
2022-08-10T03:20:37.184Z,38.34
2022-08-10T03:23:26.937Z,38.50
2022-08-10T03:25:56.596Z,38.80
2022-08-10T03:28:26.499Z,39.07
2022-08-10T03:30:54.778Z,38.56
2022-08-10T03:33:23.284Z,38.52
2022-08-10T03:36:42.228Z,38.54
2022-08-10T03:38:40.604Z,38.84
2022-08-10T03:41:10.324Z,38.79
2022-08-10T03:43:47.687Z,38.19
2022-08-10T03:46:17.423Z,38.08
2022-08-10T03:48:49.177Z,38.37
2022-08-10T03:51:19.030Z,38.27
2022-08-10T03:54:03.206Z,38.20
2022-08-10T03:56:38.264Z,38.04
2022-08-10T03:59:08.266Z,37.90
2022-08-10T04:02:43.631Z,38.14
2022-08-10T04:04:25.416Z,38.21
2022-08-10T04:06:56.101Z,38.00
2022-08-10T04:09:42.659Z,37.83
2022-08-10T04:12:16.099Z,38.23
2022-08-10T04:14:49.340Z,36.98
2022-08-10T04:18:01.235Z,36.92
2022-08-10T04:20:29.964Z,37.12
2022-08-10T04:23:06.796Z,37.43
2022-08-10T04:25:34.265Z,38.19
2022-08-10T04:28:03.177Z,37.50
2022-08-10T04:30:32.199Z,37.29
2022-08-10T04:32:59.955Z,36.80
2022-08-10T04:35:28.132Z,37.00
2022-08-10T04:37:57.096Z,37.03
2022-08-10T04:40:30.377Z,37.04
2022-08-10T04:43:03.397Z,37.20
2022-08-10T04:45:50.193Z,37.28
2022-08-10T04:48:42.838Z,36.96
2022-08-10T04:51:16.865Z,36.44
2022-08-10T04:54:02.717Z,36.64
2022-08-10T04:56:39.337Z,36.52
2022-08-10T04:59:09.247Z,36.19
2022-08-10T05:02:22.339Z,36.43
2022-08-10T05:04:35.403Z,35.85
2022-08-10T05:07:16.020Z,35.77
2022-08-10T05:10:02.780Z,35.88
2022-08-10T05:12:38.453Z,35.98
2022-08-10T05:15:07.186Z,35.89
2022-08-10T05:17:35.937Z,35.46
2022-08-10T05:20:07.312Z,35.07
2022-08-10T05:22:35.932Z,36.15
2022-08-10T05:25:05.176Z,35.76
2022-08-10T05:27:33.578Z,35.79
2022-08-10T05:30:03.322Z,35.85
2022-08-10T05:32:55.413Z,36.43
2022-08-10T05:35:21.271Z,34.97
2022-08-10T05:38:09.921Z,34.77
2022-08-10T05:40:39.291Z,34.65
2022-08-10T05:43:07.047Z,34.45
2022-08-10T05:45:34.606Z,34.64
2022-08-10T05:48:56.966Z,34.42
2022-08-10T05:51:10.128Z,33.77
2022-08-10T05:54:02.337Z,34.29
2022-08-10T05:56:26.544Z,33.32
2022-08-10T05:59:15.879Z,33.72
2022-08-10T06:02:33.289Z,33.68
2022-08-10T06:04:53.845Z,33.02
2022-08-10T06:07:22.055Z,33.28
2022-08-10T06:09:59.755Z,32.65
2022-08-10T06:12:30.863Z,32.94
2022-08-10T06:15:05.949Z,32.96
2022-08-10T06:17:38.456Z,32.66
2022-08-10T06:20:06.447Z,32.61
2022-08-10T06:22:34.035Z,32.40
2022-08-10T06:25:37.778Z,31.79
2022-08-10T06:27:50.884Z,31.76
2022-08-10T06:30:20.036Z,31.60
2022-08-10T06:32:50.630Z,31.31
2022-08-10T06:35:19.263Z,31.26
2022-08-10T06:37:50.688Z,31.41
2022-08-10T06:40:20.040Z,30.27
2022-08-10T06:42:48.850Z,30.34
2022-08-10T06:45:22.609Z,30.33
2022-08-10T06:47:55.388Z,30.25
2022-08-10T06:50:56.149Z,30.06
2022-08-10T06:53:52.136Z,29.28
2022-08-10T06:56:37.735Z,29.74
2022-08-10T06:59:21.208Z,29.57
2022-08-10T07:01:53.737Z,29.53
2022-08-10T07:04:33.225Z,29.47
2022-08-10T07:07:03.626Z,29.02
2022-08-10T07:09:33.329Z,29.50
2022-08-10T07:12:07.672Z,29.09
2022-08-10T07:14:42.582Z,29.17
2022-08-10T07:17:16.336Z,28.92
2022-08-10T07:19:50.321Z,28.99
2022-08-10T07:23:01.305Z,28.84
2022-08-10T07:25:21.008Z,28.87
2022-08-10T07:28:00.626Z,28.39
2022-08-10T07:30:31.769Z,28.02
2022-08-10T07:33:02.438Z,28.96
2022-08-10T07:35:37.058Z,29.79
2022-08-10T07:38:17.014Z,29.16
2022-08-10T07:40:45.812Z,28.60
2022-08-10T07:43:13.858Z,28.59
2022-08-10T07:45:41.257Z,28.09
2022-08-10T07:48:13.913Z,28.07
2022-08-10T07:50:41.542Z,27.72
2022-08-10T07:53:13.600Z,28.12
2022-08-10T07:56:04.328Z,28.09
2022-08-10T07:58:32.020Z,27.87
2022-08-10T08:01:00.389Z,28.30
2022-08-10T08:03:29.833Z,27.38
2022-08-10T08:06:05.224Z,28.10
2022-08-10T08:08:33.673Z,27.18
2022-08-10T08:11:01.917Z,27.32
2022-08-10T08:13:29.515Z,27.55
2022-08-10T08:16:17.330Z,26.79
2022-08-10T08:18:58.373Z,27.77
2022-08-10T08:24:04.877Z,26.63
2022-08-10T08:24:32.963Z,26.06
2022-08-10T08:27:03.098Z,26.23
2022-08-10T08:29:34.548Z,26.43
2022-08-10T08:32:07.159Z,25.65
2022-08-10T08:34:37.332Z,25.78
2022-08-10T08:37:06.013Z,25.65
2022-08-10T08:39:33.744Z,25.16
2022-08-10T08:42:38.667Z,25.07
2022-08-10T08:45:22.192Z,24.52
2022-08-10T08:48:10.612Z,24.52
2022-08-10T08:51:03.129Z,25.47
2022-08-10T08:54:07.685Z,25.57
2022-08-10T08:56:45.827Z,25.35
2022-08-10T08:59:44.948Z,24.95
2022-08-10T09:02:34.770Z,25.28
2022-08-10T09:05:24.210Z,24.80
2022-08-10T09:08:01.996Z,25.48
2022-08-10T09:10:50.588Z,25.34
2022-08-10T09:13:37.796Z,25.31
2022-08-10T09:16:10.576Z,25.45
2022-08-10T09:18:56.521Z,25.04
2022-08-10T09:21:29.737Z,24.90
2022-08-10T09:24:04.726Z,25.49
2022-08-10T09:26:42.259Z,24.87
2022-08-10T09:29:20.037Z,24.81
2022-08-10T09:33:05.541Z,24.63
2022-08-10T09:36:20.910Z,25.08
2022-08-10T09:38:17.100Z,24.26
2022-08-10T09:41:33.898Z,24.65
2022-08-10T09:44:19.684Z,24.42
2022-08-10T09:46:47.267Z,23.94
2022-08-10T09:50:04.341Z,24.09
2022-08-10T09:53:07.118Z,24.32
2022-08-10T09:56:19.012Z,23.72
2022-08-10T09:59:59.564Z,23.89
2022-08-10T10:02:20.995Z,23.02
2022-08-10T10:04:57.693Z,23.15
2022-08-10T10:07:29.121Z,23.29
2022-08-10T10:10:04.386Z,23.84
2022-08-10T10:13:06.099Z,23.43
2022-08-10T10:15:39.860Z,22.08
2022-08-10T10:18:29.134Z,22.45
2022-08-10T10:21:24.092Z,23.13
2022-08-10T10:24:41.767Z,22.46
2022-08-10T10:27:28.100Z,21.88
2022-08-10T10:30:10.166Z,22.14
2022-08-10T10:32:59.509Z,22.02
2022-08-10T10:35:37.278Z,22.14
2022-08-10T10:38:09.405Z,22.53
2022-08-10T10:40:51.506Z,22.72
2022-08-10T10:43:38.009Z,22.50
2022-08-10T10:46:23.238Z,21.67
2022-08-10T10:49:07.723Z,21.80
2022-08-10T10:51:50.630Z,21.37
2022-08-10T10:54:51.176Z,21.10
2022-08-10T10:57:58.933Z,21.07
2022-08-10T11:00:18.503Z,21.53
2022-08-10T11:02:57.841Z,21.54
2022-08-10T11:05:40.687Z,20.27
2022-08-10T11:08:12.210Z,19.23
2022-08-10T11:10:59.625Z,19.98
2022-08-10T11:14:27.235Z,20.24
2022-08-10T11:17:00.211Z,20.24
2022-08-10T11:20:03.059Z,20.01
2022-08-10T11:22:51.598Z,20.90
2022-08-10T11:25:25.489Z,20.86
2022-08-10T11:27:58.987Z,20.69
2022-08-10T11:30:33.893Z,21.13
2022-08-10T11:33:11.825Z,21.02
2022-08-10T11:35:47.598Z,20.90
2022-08-10T11:38:47.209Z,20.87
2022-08-10T11:42:09.117Z,20.60
2022-08-10T11:44:31.387Z,20.33
2022-08-10T11:47:05.051Z,18.71
2022-08-10T11:49:37.871Z,19.37
2022-08-10T11:52:31.770Z,19.76
2022-08-10T11:55:06.165Z,19.57
2022-08-10T11:57:54.732Z,19.73
2022-08-10T12:00:23.442Z,19.22
2022-08-10T12:02:55.551Z,18.90
2022-08-10T12:05:48.214Z,19.99
2022-08-10T12:10:04.663Z,18.54
2022-08-10T12:11:24.687Z,18.55
2022-08-10T12:14:21.993Z,18.56
2022-08-10T12:17:08.246Z,18.61
2022-08-10T12:20:02.062Z,18.90
2022-08-10T12:23:02.292Z,18.85
2022-08-10T12:25:57.847Z,18.72
2022-08-10T12:28:49.894Z,18.14
2022-08-10T12:31:30.145Z,17.67
2022-08-10T12:34:18.748Z,17.75
2022-08-10T12:36:57.809Z,17.61
2022-08-10T12:39:28.132Z,18.13
2022-08-10T12:42:10.799Z,18.53
2022-08-10T12:44:57.763Z,18.12
2022-08-10T12:47:40.394Z,17.61
2022-08-10T12:50:30.460Z,17.09
2022-08-10T12:53:08.021Z,16.93
2022-08-10T12:55:38.553Z,17.42
2022-08-10T12:58:58.169Z,18.19
2022-08-10T13:01:15.253Z,18.48
2022-08-10T13:04:21.111Z,17.80
2022-08-10T13:06:36.038Z,17.86
2022-08-10T13:09:09.482Z,17.83
2022-08-10T13:12:44.947Z,18.45
2022-08-10T13:14:32.875Z,18.50
2022-08-10T13:17:00.460Z,18.87
2022-08-10T13:19:54.639Z,18.69
2022-08-10T13:22:17.524Z,18.23
2022-08-10T13:24:48.733Z,18.91
2022-08-10T13:28:02.594Z,18.67
2022-08-10T13:30:14.569Z,18.95
2022-08-10T13:32:48.423Z,19.09
2022-08-10T13:35:19.992Z,18.72
2022-08-10T13:37:47.861Z,18.97
2022-08-10T13:40:16.819Z,19.44
2022-08-10T13:42:45.984Z,18.74
2022-08-10T13:45:20.431Z,19.11
2022-08-10T13:47:54.828Z,18.93
2022-08-10T13:50:33.396Z,18.91
2022-08-10T13:53:11.659Z,18.84
2022-08-10T13:55:55.380Z,18.75
2022-08-10T13:58:27.074Z,18.84
2022-08-10T14:00:56.697Z,19.33
2022-08-10T14:03:25.976Z,19.06
2022-08-10T14:05:55.241Z,18.89
2022-08-10T14:08:28.014Z,19.42
2022-08-10T14:11:09.139Z,19.14
2022-08-10T14:14:02.942Z,19.55
2022-08-10T14:16:32.779Z,19.27
2022-08-10T14:19:04.065Z,19.12
2022-08-10T14:21:37.799Z,18.87
2022-08-10T14:24:05.380Z,18.37
2022-08-10T14:26:33.005Z,18.34
2022-08-10T14:29:07.013Z,18.57
2022-08-10T14:31:36.984Z,18.51
2022-08-10T14:34:06.689Z,18.65
2022-08-10T14:36:44.325Z,18.33
2022-08-10T14:39:16.045Z,18.24
2022-08-10T14:42:01.695Z,17.63
2022-08-10T14:44:57.280Z,18.56
2022-08-10T14:48:02.770Z,18.76
2022-08-10T14:50:31.748Z,18.63
2022-08-10T14:53:27.417Z,18.53
2022-08-10T14:56:00.856Z,18.31
2022-08-10T14:58:35.784Z,18.29
2022-08-10T15:01:07.835Z,18.25
2022-08-10T15:03:58.974Z,17.66
2022-08-10T15:06:31.301Z,17.80
2022-08-10T15:09:19.418Z,18.04
2022-08-10T15:12:13.535Z,17.65
2022-08-10T15:14:43.515Z,18.28
2022-08-10T15:17:16.358Z,18.32
2022-08-10T15:20:02.843Z,18.52
2022-08-10T15:22:38.325Z,18.46
2022-08-10T15:25:18.364Z,18.50
2022-08-10T15:27:53.917Z,18.61
2022-08-10T15:30:31.518Z,18.32
2022-08-10T15:34:03.403Z,18.65
2022-08-10T15:36:33.598Z,18.68
2022-08-10T15:39:04.282Z,18.65
2022-08-10T15:41:57.378Z,18.80
2022-08-10T15:44:38.341Z,19.15
2022-08-10T15:47:09.392Z,19.31
2022-08-10T15:49:48.105Z,18.99
2022-08-10T15:52:39.505Z,18.99
2022-08-10T15:55:43.068Z,19.10
2022-08-10T15:58:39.522Z,19.00
2022-08-10T16:02:14.205Z,19.60
2022-08-10T16:04:09.417Z,19.28
2022-08-10T16:06:45.004Z,19.61
2022-08-10T16:10:26.536Z,19.23
2022-08-10T16:12:13.389Z,19.35
2022-08-10T16:14:45.328Z,19.42
2022-08-10T16:17:13.283Z,19.68
2022-08-10T16:19:53.617Z,19.98
2022-08-10T16:22:35.776Z,20.15
2022-08-10T16:25:13.997Z,20.24
2022-08-10T16:27:41.602Z,20.11
2022-08-10T16:30:09.760Z,20.16
2022-08-10T16:32:38.396Z,20.22
2022-08-10T16:35:09.757Z,20.53
2022-08-10T16:37:58.047Z,20.61
2022-08-10T16:40:26.026Z,20.60
2022-08-10T16:42:54.052Z,20.43
2022-08-10T16:45:29.607Z,20.29
2022-08-10T16:47:57.855Z,19.68
2022-08-10T16:50:35.163Z,19.83
2022-08-10T16:53:06.897Z,19.88
2022-08-10T16:55:48.740Z,20.38
2022-08-10T16:58:25.230Z,20.35
2022-08-10T17:00:57.962Z,21.06
2022-08-10T17:04:07.171Z,21.15
2022-08-10T17:06:22.811Z,21.77
2022-08-10T17:08:53.728Z,21.14
2022-08-10T17:11:22.775Z,21.09
2022-08-10T17:13:50.457Z,21.26
2022-08-10T17:16:18.207Z,21.48
2022-08-10T17:18:46.920Z,21.17
2022-08-10T17:21:20.712Z,21.58
2022-08-10T17:23:53.213Z,21.70
2022-08-10T17:26:35.748Z,21.24
2022-08-10T17:29:57.849Z,21.56
2022-08-10T17:32:11.508Z,21.73
2022-08-10T17:34:40.827Z,21.32
2022-08-10T17:37:15.983Z,21.81
2022-08-10T17:39:48.674Z,21.39
2022-08-10T17:42:21.771Z,21.48
2022-08-10T17:44:51.686Z,21.09
2022-08-10T17:47:19.910Z,21.24
2022-08-10T17:49:47.430Z,21.39
2022-08-10T17:52:20.352Z,21.36
2022-08-10T17:54:54.911Z,21.54
2022-08-10T17:57:23.268Z,21.48
2022-08-10T17:59:51.960Z,21.85
2022-08-10T18:02:26.849Z,21.83
2022-08-10T18:04:57.188Z,21.97
2022-08-10T18:07:39.094Z,22.01
2022-08-10T18:10:09.802Z,22.13
2022-08-10T18:12:45.349Z,22.52
2022-08-10T18:15:16.123Z,22.35
2022-08-10T18:17:46.680Z,22.49
2022-08-10T18:20:14.868Z,22.60
2022-08-10T18:22:49.298Z,22.90
2022-08-10T18:25:20.024Z,22.79
2022-08-10T18:28:03.861Z,22.90
2022-08-10T18:30:36.180Z,23.22
2022-08-10T18:33:04.968Z,23.89
2022-08-10T18:35:35.007Z,24.47
2022-08-10T18:38:03.097Z,24.60
2022-08-10T18:40:36.276Z,24.79
2022-08-10T18:43:10.206Z,25.18
2022-08-10T18:45:56.674Z,25.62
2022-08-10T18:48:27.974Z,25.74
2022-08-10T18:50:55.807Z,26.06
2022-08-10T18:53:41.128Z,26.28
2022-08-10T18:56:17.812Z,26.53
2022-08-10T18:59:13.334Z,26.73
2022-08-10T19:02:17.788Z,27.16
2022-08-10T19:05:30.680Z,27.48
2022-08-10T19:08:33.885Z,27.62
2022-08-10T19:11:22.505Z,28.18
2022-08-10T19:13:59.026Z,28.23
2022-08-10T19:16:35.948Z,28.38
2022-08-10T19:19:22.063Z,28.49
2022-08-10T19:22:02.472Z,28.47
2022-08-10T19:24:44.844Z,29.03
2022-08-10T19:27:41.456Z,28.91
2022-08-10T19:30:13.715Z,28.92
2022-08-10T19:32:44.084Z,29.28
2022-08-10T19:36:04.046Z,29.65
2022-08-10T19:38:50.499Z,29.23
2022-08-10T19:41:30.965Z,29.38
2022-08-10T19:44:06.874Z,29.62
2022-08-10T19:46:49.407Z,29.71
2022-08-10T19:49:24.419Z,29.53
2022-08-10T19:52:11.638Z,29.59
2022-08-10T19:54:59.765Z,29.71
2022-08-10T19:58:10.093Z,29.71
2022-08-10T20:00:50.095Z,29.88
2022-08-10T20:03:21.912Z,29.84
2022-08-10T20:06:18.787Z,29.90
2022-08-10T20:08:59.557Z,30.00
2022-08-10T20:11:44.273Z,30.01
2022-08-10T20:14:23.897Z,30.49
2022-08-10T20:16:56.035Z,30.75
2022-08-10T20:19:52.929Z,30.88
2022-08-10T20:22:31.242Z,30.66
2022-08-10T20:25:07.100Z,31.08
2022-08-10T20:27:58.632Z,31.05
2022-08-10T20:30:30.550Z,32.33
2022-08-10T20:33:18.277Z,33.62
2022-08-10T20:36:08.375Z,33.30
2022-08-10T20:38:35.578Z,31.45
2022-08-10T20:41:15.644Z,31.45
2022-08-10T20:44:03.775Z,30.36
2022-08-10T20:46:37.956Z,30.42
2022-08-10T20:49:20.504Z,30.60
2022-08-10T20:51:58.114Z,30.52
2022-08-10T20:54:52.233Z,30.37
2022-08-10T20:57:56.474Z,29.99
2022-08-10T21:00:23.285Z,29.55
2022-08-10T21:03:58.675Z,29.34
2022-08-10T21:06:44.935Z,28.86
2022-08-10T21:09:28.215Z,29.21
2022-08-10T21:12:26.260Z,29.09
2022-08-10T21:14:56.595Z,29.03
2022-08-10T21:17:51.741Z,29.06
2022-08-10T21:20:59.479Z,29.56
2022-08-10T21:23:30.711Z,29.11
2022-08-10T21:26:29.309Z,29.36
2022-08-10T21:29:39.944Z,29.04
2022-08-10T21:32:48.189Z,29.17
2022-08-10T21:35:36.650Z,29.21
2022-08-10T21:38:21.476Z,29.17
2022-08-10T21:41:17.567Z,29.00
2022-08-10T21:44:18.231Z,29.08
2022-08-10T21:47:30.986Z,29.01
2022-08-10T21:50:27.553Z,28.68
2022-08-10T21:53:13.800Z,29.46
2022-08-10T21:56:27.719Z,29.93
2022-08-10T21:59:42.776Z,29.33
2022-08-10T22:02:31.821Z,29.89
2022-08-10T22:05:21.790Z,29.39
2022-08-10T22:08:12.112Z,30.02
2022-08-10T22:11:01.662Z,29.84
2022-08-10T22:13:49.245Z,29.51
2022-08-10T22:17:04.929Z,29.82
2022-08-10T22:19:54.345Z,30.22
2022-08-10T22:22:56.147Z,30.20
2022-08-10T22:26:13.693Z,30.21
2022-08-10T22:29:08.139Z,30.25
2022-08-10T22:32:03.441Z,30.33
2022-08-10T22:34:58.270Z,30.26
2022-08-10T22:38:07.669Z,30.31
2022-08-10T22:40:54.392Z,30.68
2022-08-10T22:43:46.465Z,30.37
2022-08-10T22:46:37.892Z,30.44
2022-08-10T22:49:05.380Z,30.62
2022-08-10T22:51:52.886Z,30.70
2022-08-10T22:54:59.895Z,30.58
2022-08-10T22:57:46.401Z,30.76
2022-08-10T23:00:16.755Z,31.49
2022-08-10T23:02:50.871Z,31.08
2022-08-10T23:05:24.661Z,31.59
2022-08-10T23:08:29.662Z,31.08
2022-08-10T23:11:04.422Z,31.19
2022-08-10T23:13:36.908Z,31.29
2022-08-10T23:16:27.632Z,31.43
2022-08-10T23:19:12.052Z,31.30
2022-08-10T23:22:04.075Z,31.41
2022-08-10T23:25:03.894Z,31.85
2022-08-10T23:27:39.274Z,31.84
2022-08-10T23:30:18.027Z,31.84
2022-08-10T23:32:51.905Z,31.58
2022-08-10T23:36:05.479Z,32.01
2022-08-10T23:38:09.572Z,32.15
2022-08-10T23:40:37.579Z,31.98
2022-08-10T23:43:05.455Z,31.81
2022-08-10T23:45:52.546Z,32.21
2022-08-10T23:48:24.136Z,32.32
2022-08-10T23:50:59.638Z,32.24
2022-08-10T23:53:33.666Z,32.18
2022-08-10T23:56:21.054Z,32.30
2022-08-10T23:58:54.572Z,32.61
